Time;durP1;ratioP1;P1;durP2;ratioP2;P2;SDS_P1;SDS_P2;PMS_P1;PMS_P2;Temp;Humidity;BMP_temperature;BMP_pressure;BME280_temperature;BME280_humidity;BME280_pressure;Samples;Min_cycle;Max_cycle;Signal;HPM_P1;HPM_P2
2021/07/11 00:02:55;;;;;;;11.18;8.15;;;;;;;17.16;73.84;101568.53;10061481;28;20047;-67
2021/07/11 00:07:52;;;;;;;10.85;7.93;;;;;;;17.11;73.82;101563.22;10063965;28;20039;-68
2021/07/11 00:12:49;;;;;;;12.00;8.00;;;;;;;17.05;74.03;101559.84;10040454;28;20106;-68
2021/07/11 00:17:46;;;;;;;10.48;7.82;;;;;;;17.01;74.17;101554.22;10060716;28;20477;-67
2021/07/11 00:22:42;;;;;;;10.80;7.45;;;;;;;17.00;74.15;101560.06;10053978;28;20118;-67
2021/07/11 00:27:43;;;;;;;9.85;8.23;;;;;;;16.96;74.72;101559.13;10053001;28;20644;-67
2021/07/11 00:32:40;;;;;;;9.52;7.78;;;;;;;16.92;74.25;101553.50;10058800;28;20101;-67
2021/07/11 00:37:36;;;;;;;9.13;7.75;;;;;;;16.88;74.75;101560.84;10062299;28;20086;-67
2021/07/11 00:42:33;;;;;;;10.07;8.27;;;;;;;16.82;74.50;101565.78;10053073;28;20119;-67
2021/07/11 00:47:29;;;;;;;9.38;7.25;;;;;;;16.80;74.82;101556.19;10060679;28;20397;-67
2021/07/11 00:52:26;;;;;;;10.20;7.05;;;;;;;16.73;74.96;101564.19;10061585;28;20048;-68
2021/07/11 00:57:23;;;;;;;9.35;7.43;;;;;;;16.70;75.01;101556.59;10059785;28;20074;-68
2021/07/11 01:02:35;;;;;;;10.52;7.35;;;;;;;16.66;75.13;101555.66;10047506;28;20581;-66
2021/07/11 01:12:46;;;;;;;9.02;7.25;;;;;;;16.59;75.22;101568.06;4659786;26;20052;-68
2021/07/11 01:17:42;;;;;;;10.10;7.25;;;;;;;16.59;75.43;101572.75;10027204;28;20078;-68
2021/07/11 01:22:44;;;;;;;10.05;7.43;;;;;;;16.56;75.85;101584.50;9995927;29;20112;-67
2021/07/11 01:27:43;;;;;;;10.35;7.22;;;;;;;16.54;76.15;101571.00;9988029;29;20079;-66
2021/07/11 01:32:40;;;;;;;9.27;7.88;;;;;;;16.53;75.80;101574.94;9990685;29;20055;-67
2021/07/11 01:37:37;;;;;;;11.40;7.70;;;;;;;16.48;75.62;101572.38;9995006;29;20112;-67
2021/07/11 01:42:35;;;;;;;12.45;7.20;;;;;;;16.49;76.11;101574.00;9978747;29;20051;-66
2021/07/11 01:47:34;;;;;;;9.10;7.22;;;;;;;16.49;76.35;101571.22;9983105;29;20103;-66
2021/07/11 01:52:32;;;;;;;10.07;6.80;;;;;;;16.45;76.77;101573.03;9994348;29;20056;-69
2021/07/11 01:57:28;;;;;;;9.23;7.13;;;;;;;16.45;76.51;101588.81;9984637;29;20079;-70
2021/07/11 02:02:24;;;;;;;8.07;6.50;;;;;;;16.45;76.53;101584.06;9985278;29;20053;-69
2021/07/11 02:07:21;;;;;;;10.35;7.13;;;;;;;16.46;76.52;101577.44;9983217;29;20136;-66
2021/07/11 02:12:20;;;;;;;13.15;7.18;;;;;;;16.47;76.68;101569.94;9988810;29;20064;-69
2021/07/11 02:17:20;;;;;;;9.75;7.13;;;;;;;16.49;77.14;101590.56;9998055;29;20571;-69
2021/07/11 02:22:17;;;;;;;10.88;7.43;;;;;;;16.50;76.97;101580.31;10004113;29;20048;-69
2021/07/11 02:27:14;;;;;;;9.65;6.93;;;;;;;16.55;77.50;101586.44;9991526;29;20119;-67
2021/07/11 02:32:15;;;;;;;8.75;6.80;;;;;;;16.58;77.51;101579.44;9997030;29;20044;-66
2021/07/11 02:37:16;;;;;;;9.70;7.00;;;;;;;16.62;77.72;101577.63;9994617;29;20044;-66
2021/07/11 02:42:15;;;;;;;8.80;7.10;;;;;;;16.65;77.78;101584.44;9998769;29;20419;-66
2021/07/11 02:47:15;;;;;;;7.88;6.57;;;;;;;16.69;77.40;101571.56;10000020;29;20505;-68
2021/07/11 02:52:14;;;;;;;11.23;7.03;;;;;;;16.73;77.13;101572.47;9993092;29;20048;-67
2021/07/11 02:57:13;;;;;;;7.43;6.10;;;;;;;16.75;77.29;101565.47;9986805;29;20091;-67
2021/07/11 03:02:10;;;;;;;7.90;6.22;;;;;;;16.79;77.24;101554.59;10002068;29;20082;-67
2021/07/11 03:07:07;;;;;;;9.80;7.45;;;;;;;16.79;76.73;101560.13;9989993;29;20052;-67
2021/07/11 03:12:04;;;;;;;8.13;6.60;;;;;;;16.79;77.00;101554.59;10005701;29;20060;-68
2021/07/11 03:17:01;;;;;;;9.73;6.47;;;;;;;16.76;76.62;101549.72;10005797;29;20075;-67
2021/07/11 03:21:58;;;;;;;8.52;6.93;;;;;;;16.78;76.94;101558.50;9997333;29;20103;-68
2021/07/11 03:26:56;;;;;;;8.52;6.15;;;;;;;16.77;76.59;101556.84;10001753;29;20044;-67
2021/07/11 03:31:57;;;;;;;9.27;6.85;;;;;;;16.81;77.07;101568.88;9982175;29;20123;-68
2021/07/11 03:36:57;;;;;;;8.70;6.70;;;;;;;16.82;76.50;101562.19;10006708;29;20127;-68
2021/07/11 03:41:56;;;;;;;10.43;7.03;;;;;;;16.84;77.05;101565.44;9981595;29;20176;-68
2021/07/11 03:46:55;;;;;;;8.75;6.35;;;;;;;16.80;76.91;101561.72;10006728;29;20509;-68
2021/07/11 03:51:59;;;;;;;7.53;6.22;;;;;;;16.82;76.90;101564.94;10011332;29;20055;-68
2021/07/11 03:56:55;;;;;;;10.30;7.30;;;;;;;16.80;76.74;101553.44;9991631;29;20631;-69
2021/07/11 04:01:52;;;;;;;9.15;6.60;;;;;;;16.76;77.15;101560.78;9987302;29;20131;-70
2021/07/11 04:06:51;;;;;;;9.88;7.40;;;;;;;16.74;77.50;101555.59;9995749;29;20050;-70
2021/07/11 04:11:48;;;;;;;8.48;6.05;;;;;;;16.82;77.52;101562.19;9994188;29;20087;-70
2021/07/11 04:16:49;;;;;;;8.43;7.13;;;;;;;16.85;77.53;101569.00;10001023;29;20074;-71
2021/07/11 04:21:49;;;;;;;8.73;6.13;;;;;;;16.92;77.66;101574.75;9998819;29;20047;-70
2021/07/11 04:26:47;;;;;;;9.98;6.78;;;;;;;16.99;77.81;101581.38;9995051;29;20550;-69
2021/07/11 04:31:45;;;;;;;11.23;6.35;;;;;;;17.03;77.51;101579.56;10000374;29;20504;-70
2021/07/11 04:36:41;;;;;;;8.90;6.15;;;;;;;17.03;77.52;101579.56;9997608;29;20063;-69
2021/07/11 04:41:40;;;;;;;10.15;6.60;;;;;;;17.08;77.83;101584.06;10007526;29;20061;-68
2021/07/11 04:46:37;;;;;;;8.35;5.80;;;;;;;17.17;77.94;101581.19;9997163;29;20114;-68
2021/07/11 04:51:34;;;;;;;6.90;5.72;;;;;;;17.24;77.59;101586.94;9998815;29;20056;-68
2021/07/11 04:56:32;;;;;;;6.85;5.18;;;;;;;17.28;77.78;101592.59;9983361;29;20071;-71
2021/07/11 05:01:29;;;;;;;9.05;6.47;;;;;;;17.33;77.85;101590.41;9987892;29;20107;-71
2021/07/11 05:06:25;;;;;;;7.57;5.80;;;;;;;17.40;77.91;101596.19;9987219;29;20083;-68
2021/07/11 05:11:23;;;;;;;8.70;5.50;;;;;;;17.45;77.89;101598.75;9995633;29;20052;-68
2021/07/11 05:16:21;;;;;;;8.38;5.00;;;;;;;17.50;77.86;101594.13;9988285;29;20425;-68
2021/07/11 05:21:19;;;;;;;9.02;5.97;;;;;;;17.54;77.80;101600.59;9985420;29;20075;-68
2021/07/11 05:26:15;;;;;;;8.38;5.28;;;;;;;17.64;78.37;101600.97;9987448;29;20052;-68
2021/07/11 05:31:12;;;;;;;6.25;5.10;;;;;;;17.68;78.42;101592.75;9992781;29;20115;-69
2021/07/11 05:36:10;;;;;;;10.02;4.75;;;;;;;17.80;78.34;101592.78;9966961;29;20095;-68
2021/07/11 05:41:07;;;;;;;7.63;5.13;;;;;;;17.90;78.46;101607.34;9979393;29;20101;-68
2021/07/11 05:46:03;;;;;;;7.68;5.03;;;;;;;17.96;77.97;101605.94;9975541;29;20432;-68
2021/07/11 05:51:00;;;;;;;7.20;4.78;;;;;;;18.06;78.15;101606.28;9998114;29;20441;-68
2021/07/11 05:55:57;;;;;;;10.48;5.40;;;;;;;18.08;77.21;101617.03;9988991;29;20103;-68
2021/07/11 06:00:53;;;;;;;7.03;4.90;;;;;;;18.15;76.55;101625.53;9982542;29;20509;-68
2021/07/11 06:05:49;;;;;;;8.38;5.38;;;;;;;18.20;76.90;101628.06;9987135;29;20131;-68
2021/07/11 06:10:46;;;;;;;9.45;4.95;;;;;;;18.13;77.33;101619.53;9994201;29;20051;-68
2021/07/11 06:15:43;;;;;;;6.50;4.95;;;;;;;18.12;77.25;101617.91;9973753;29;20127;-69
2021/07/11 06:20:39;;;;;;;6.82;5.15;;;;;;;18.07;77.00;101615.38;9980909;29;20054;-69
2021/07/11 06:25:37;;;;;;;8.70;6.20;;;;;;;18.05;77.12;101623.22;9988659;29;20562;-69
2021/07/11 06:30:33;;;;;;;11.38;6.15;;;;;;;18.00;77.56;101621.50;10003179;29;20156;-69
2021/07/11 06:35:32;;;;;;;12.07;6.25;;;;;;;18.01;77.30;101622.31;9994238;29;20489;-68
2021/07/11 06:40:29;;;;;;;7.03;5.65;;;;;;;18.03;77.11;101622.75;9993233;29;20465;-68
2021/07/11 06:45:25;;;;;;;8.82;5.80;;;;;;;18.07;77.84;101620.91;10001171;29;20463;-68
2021/07/11 06:50:22;;;;;;;9.23;5.40;;;;;;;18.14;78.13;101623.91;9971029;29;20080;-71
2021/07/11 06:55:18;;;;;;;8.77;5.60;;;;;;;18.26;77.92;101625.84;9973064;29;20072;-69
2021/07/11 07:00:16;;;;;;;8.65;5.18;;;;;;;18.31;77.01;101628.41;9973774;29;20080;-72
2021/07/11 07:05:12;;;;;;;7.57;5.05;;;;;;;18.38;75.95;101627.78;9980826;29;20086;-69
2021/07/11 07:10:13;;;;;;;10.75;5.10;;;;;;;18.46;75.40;101624.09;9984279;29;20100;-70
2021/07/11 07:15:11;;;;;;;6.40;4.65;;;;;;;18.61;75.54;101626.16;9986897;29;20048;-70
2021/07/11 07:20:08;;;;;;;6.15;4.57;;;;;;;18.76;75.05;101629.34;9989665;29;20477;-68
2021/07/11 07:25:06;;;;;;;5.90;4.75;;;;;;;18.89;73.91;101620.66;9990414;29;20079;-69
2021/07/11 07:30:04;;;;;;;8.23;5.00;;;;;;;19.06;74.58;101622.31;9985409;29;20138;-68
2021/07/11 07:35:01;;;;;;;8.05;5.03;;;;;;;19.19;73.33;101616.69;9985546;29;20071;-71
2021/07/11 07:39:59;;;;;;;8.30;4.85;;;;;;;19.32;72.88;101615.47;9969309;29;20585;-69
2021/07/11 07:44:55;;;;;;;6.90;5.25;;;;;;;19.47;73.56;101620.22;9965796;29;20135;-71
2021/07/11 07:49:52;;;;;;;7.25;5.20;;;;;;;19.59;72.96;101615.75;9976394;29;20632;-72
2021/07/11 07:54:49;;;;;;;5.80;4.38;;;;;;;19.72;71.63;101611.75;9978233;29;20077;-69
2021/07/11 07:59:45;;;;;;;7.95;5.00;;;;;;;19.79;71.98;101623.03;9972957;29;20079;-69
2021/07/11 08:04:42;;;;;;;8.52;4.60;;;;;;;19.86;69.63;101616.84;9992336;29;20094;-71
2021/07/11 08:09:39;;;;;;;9.57;5.00;;;;;;;20.02;69.27;101614.06;9985606;29;20080;-73
2021/07/11 08:14:35;;;;;;;7.05;4.82;;;;;;;20.18;69.16;101612.84;9974108;29;20096;-68
2021/07/11 08:19:32;;;;;;;5.80;4.03;;;;;;;20.32;65.33;101611.56;9970956;29;20104;-70
2021/07/11 08:24:28;;;;;;;7.45;4.25;;;;;;;20.47;65.90;101615.44;9986103;29;20044;-71
2021/07/11 08:29:25;;;;;;;6.38;4.57;;;;;;;20.49;64.74;101627.00;9975113;29;20057;-70
2021/07/11 08:34:21;;;;;;;6.50;4.40;;;;;;;20.66;66.14;101620.28;9972943;29;20151;-71
2021/07/11 08:39:18;;;;;;;14.52;4.35;;;;;;;20.68;65.97;101623.47;9977701;29;20040;-69
2021/07/11 08:44:14;;;;;;;5.82;4.03;;;;;;;20.69;66.51;101620.31;9963421;29;20458;-66
2021/07/11 08:49:11;;;;;;;7.15;4.90;;;;;;;20.76;67.09;101623.25;9972949;29;20539;-69
2021/07/11 08:54:08;;;;;;;5.80;4.43;;;;;;;20.91;66.54;101620.75;9985797;29;20057;-69
2021/07/11 08:59:04;;;;;;;6.88;3.90;;;;;;;21.17;65.16;101615.31;9977603;29;20044;-69
2021/07/11 09:04:06;;;;;;;8.90;5.15;;;;;;;21.43;66.59;101622.16;9978629;29;20174;-69
2021/07/11 09:09:02;;;;;;;7.45;4.28;;;;;;;21.73;66.66;101622.28;9965647;29;20500;-69
2021/07/11 09:13:59;;;;;;;8.05;4.00;;;;;;;22.03;64.25;101616.78;9962169;29;20064;-69
2021/07/11 09:18:55;;;;;;;5.68;3.85;;;;;;;22.26;63.38;101615.97;9980202;29;20048;-69
2021/07/11 09:23:52;;;;;;;6.45;4.70;;;;;;;22.42;63.64;101605.44;9975122;29;20520;-69
2021/07/11 09:28:51;;;;;;;5.72;3.72;;;;;;;22.48;60.40;101606.69;9965434;29;20040;-69
2021/07/11 09:33:59;;;;;;;7.70;4.35;;;;;;;22.60;60.93;101602.06;9973067;29;20076;-70
2021/07/11 09:38:59;;;;;;;6.93;4.22;;;;;;;22.71;59.91;101591.84;9972536;29;20468;-71
2021/07/11 09:43:59;;;;;;;7.55;3.75;;;;;;;22.92;60.17;101602.44;9968621;29;20096;-71
2021/07/11 09:48:56;;;;;;;5.82;4.50;;;;;;;23.09;58.83;101595.47;9971463;29;20044;-70
2021/07/11 09:53:53;;;;;;;9.13;4.50;;;;;;;23.32;58.46;101603.69;9980664;29;20075;-69
2021/07/11 09:58:57;;;;;;;7.75;4.80;;;;;;;23.49;56.98;101597.47;9970829;29;20140;-71
2021/07/11 10:03:58;;;;;;;5.40;4.10;;;;;;;23.80;56.59;101588.97;9968916;29;20103;-72
2021/07/11 10:08:55;;;;;;;7.47;4.32;;;;;;;23.97;55.28;101588.28;9977942;29;20056;-72
2021/07/11 10:13:52;;;;;;;6.28;4.07;;;;;;;24.22;52.79;101580.06;9978318;29;20056;-70
2021/07/11 10:18:54;;;;;;;7.32;4.32;;;;;;;25.04;53.62;101582.41;9971391;29;20040;-71
2021/07/11 10:23:51;;;;;;;7.20;4.45;;;;;;;26.18;52.09;101580.81;9965842;29;20049;-71
2021/07/11 10:28:49;;;;;;;6.80;4.53;;;;;;;27.16;48.26;101587.56;9992636;29;20047;-67
2021/07/11 10:33:47;;;;;;;5.47;3.63;;;;;;;27.66;46.85;101592.78;9980364;29;20163;-71
2021/07/11 10:38:49;;;;;;;5.75;4.18;;;;;;;27.27;46.39;101593.94;9988659;29;20633;-71
2021/07/11 10:43:58;;;;;;;8.35;4.55;;;;;;;26.15;47.60;101593.59;9987329;29;20059;-69
2021/07/11 10:48:55;;;;;;;6.78;3.92;;;;;;;25.92;48.42;101584.84;9982756;29;20080;-68
2021/07/11 10:53:51;;;;;;;7.47;4.70;;;;;;;25.57;49.09;101592.06;9972601;29;20049;-69
2021/07/11 10:58:48;;;;;;;5.10;3.25;;;;;;;26.72;48.12;101592.63;9974589;29;20080;-68
2021/07/11 11:03:52;;;;;;;4.68;3.67;;;;;;;28.21;47.80;101591.88;9976019;29;20104;-70
2021/07/11 11:08:49;;;;;;;4.95;3.67;;;;;;;28.41;46.28;101591.25;9974420;29;20128;-70
2021/07/11 11:13:45;;;;;;;6.38;4.32;;;;;;;29.24;42.16;101585.31;9978405;29;20067;-68
2021/07/11 11:18:45;;;;;;;9.23;3.83;;;;;;;27.98;44.05;101591.72;9957427;29;20072;-69
2021/07/11 11:23:47;;;;;;;6.07;4.20;;;;;;;27.05;48.44;101591.22;9980181;29;20104;-71
2021/07/11 11:28:44;;;;;;;7.10;4.00;;;;;;;27.00;48.08;101590.88;9976350;29;20079;-68
2021/07/11 11:33:59;;;;;;;8.93;3.70;;;;;;;27.12;47.32;101598.00;9978837;29;20046;-68
2021/07/11 11:39:02;;;;;;;5.20;4.25;;;;;;;26.99;48.01;101590.09;9976522;29;20108;-69
2021/07/11 11:44:14;;;;;;;8.02;4.45;;;;;;;26.97;47.46;101581.28;9987318;29;20132;-68
2021/07/11 11:49:13;;;;;;;5.43;4.13;;;;;;;26.42;48.95;101581.91;9990158;29;20052;-70
2021/07/11 11:54:10;;;;;;;7.28;4.63;;;;;;;26.06;50.56;101573.59;10001912;29;20048;-70
2021/07/11 11:59:06;;;;;;;6.78;4.50;;;;;;;25.85;50.54;101574.41;9982362;29;20044;-71
2021/07/11 12:04:15;;;;;;;7.30;4.18;;;;;;;25.75;49.83;101576.03;9991718;29;20072;-68
2021/07/11 12:09:11;;;;;;;6.00;4.47;;;;;;;25.64;49.98;101580.06;9993737;29;20083;-69
2021/07/11 12:14:15;;;;;;;9.00;5.57;;;;;;;25.81;49.88;101580.03;10004744;29;20055;-69
2021/07/11 12:19:12;;;;;;;7.90;4.78;;;;;;;26.13;50.21;101570.81;9984961;29;20524;-68
2021/07/11 12:24:11;;;;;;;5.32;3.92;;;;;;;26.32;49.67;101574.31;10002723;29;20080;-68
2021/07/11 12:29:09;;;;;;;5.80;3.65;;;;;;;26.46;49.81;101565.88;9995523;29;20079;-69
2021/07/11 12:34:08;;;;;;;7.78;3.88;;;;;;;26.61;49.06;101553.41;9994468;29;20127;-69
2021/07/11 12:39:16;;;;;;;6.43;3.60;;;;;;;26.70;48.50;101555.78;9993307;29;20079;-69
2021/07/11 12:44:18;;;;;;;5.80;4.37;;;;;;;26.69;48.42;101553.38;9991833;29;20060;-68
2021/07/11 12:49:17;;;;;;;4.78;3.63;;;;;;;26.33;48.76;101559.13;9987150;29;20072;-69
2021/07/11 12:54:14;;;;;;;4.47;3.50;;;;;;;25.90;50.54;101559.25;9989651;29;20532;-68
2021/07/11 12:59:11;;;;;;;8.18;4.40;;;;;;;25.47;53.74;101588.06;9997913;29;20135;-70
2021/07/11 13:04:13;;;;;;;12.13;7.53;;;;;;;24.63;62.49;101585.47;9994642;29;20055;-71
2021/07/11 13:09:10;;;;;;;14.30;9.25;;;;;;;23.91;66.91;101573.09;9984557;29;20040;-68
2021/07/11 13:14:15;;;;;;;12.60;10.82;;;;;;;23.44;69.41;101571.91;9990796;29;20067;-69
2021/07/11 13:19:11;;;;;;;13.27;10.73;;;;;;;23.38;72.07;101563.09;10001841;29;20444;-70
2021/07/11 13:24:08;;;;;;;11.45;9.57;;;;;;;23.57;71.38;101564.84;9979548;29;20473;-69
2021/07/11 13:29:04;;;;;;;10.02;8.27;;;;;;;23.99;71.86;101560.78;9998025;29;20131;-69
2021/07/11 13:34:02;;;;;;;12.93;8.65;;;;;;;24.34;67.23;101557.38;10002232;29;20549;-68
2021/07/11 13:38:58;;;;;;;7.40;5.78;;;;;;;24.64;60.79;101542.31;9988879;29;20064;-69
2021/07/11 13:43:55;;;;;;;5.25;4.38;;;;;;;24.55;58.79;101562.28;10000669;29;20072;-70
2021/07/11 13:48:52;;;;;;;6.45;5.25;;;;;;;24.62;63.64;101566.28;9999528;29;20126;-69
2021/07/11 13:53:48;;;;;;;6.43;5.05;;;;;;;24.69;63.22;101561.53;9982115;29;20505;-67
2021/07/11 13:58:45;;;;;;;6.70;5.63;;;;;;;24.67;64.79;101563.09;9984892;29;20690;-67
2021/07/11 14:03:41;;;;;;;7.07;5.82;;;;;;;24.55;65.44;101551.09;9990919;29;20083;-68
2021/07/11 14:08:38;;;;;;;6.00;4.38;;;;;;;24.35;60.67;101553.38;9991072;29;20055;-69
2021/07/11 14:13:34;;;;;;;7.00;6.05;;;;;;;24.44;61.50;101555.81;9998516;29;20071;-69
2021/07/11 14:18:31;;;;;;;8.35;5.38;;;;;;;24.54;58.62;101546.69;9989661;29;20054;-70
2021/07/11 14:23:28;;;;;;;8.02;4.40;;;;;;;24.61;57.98;101545.13;9980668;29;20484;-70
2021/07/11 14:28:28;;;;;;;8.00;4.70;;;;;;;24.71;56.94;101535.97;9989392;29;20052;-70
2021/07/11 14:33:25;;;;;;;9.15;4.90;;;;;;;24.77;60.15;101539.97;9991683;29;20131;-69
2021/07/11 14:38:21;;;;;;;5.43;3.45;;;;;;;24.59;56.13;101533.53;9990428;29;20076;-69
2021/07/11 14:43:18;;;;;;;8.68;5.50;;;;;;;24.47;57.80;101549.47;9976665;29;20072;-69
2021/07/11 14:48:15;;;;;;;7.72;4.38;;;;;;;24.39;57.45;101533.03;9988075;29;20132;-67
2021/07/11 14:53:11;;;;;;;7.63;4.40;;;;;;;24.30;58.31;101541.78;9991054;29;20044;-69
2021/07/11 14:58:08;;;;;;;6.22;4.13;;;;;;;24.33;59.31;101535.41;9984055;29;20416;-69
2021/07/11 15:03:04;;;;;;;5.80;4.32;;;;;;;24.32;59.39;101536.59;9986879;29;20043;-68
2021/07/11 15:08:01;;;;;;;6.38;4.78;;;;;;;24.18;58.20;101530.94;9981121;29;20079;-70
2021/07/11 15:12:58;;;;;;;8.50;4.05;;;;;;;24.02;57.63;101532.06;9984401;29;20135;-70
2021/07/11 15:18:02;;;;;;;6.85;4.95;;;;;;;23.92;58.70;101518.84;9995333;29;20039;-70
2021/07/11 15:22:58;;;;;;;6.65;4.32;;;;;;;23.83;58.49;101515.59;10007578;29;20071;-71
2021/07/11 15:27:55;;;;;;;5.07;3.72;;;;;;;23.72;58.26;101510.72;9996916;29;20523;-71
2021/07/11 15:32:51;;;;;;;6.47;4.15;;;;;;;23.56;58.98;101518.59;10006239;29;20079;-70
2021/07/11 15:37:48;;;;;;;5.82;4.13;;;;;;;23.34;59.82;101533.56;9993535;29;20102;-70
2021/07/11 15:42:44;;;;;;;5.93;3.75;;;;;;;23.20;60.51;101535.03;9998039;29;20483;-69
2021/07/11 15:47:42;;;;;;;5.85;4.38;;;;;;;23.07;60.86;101525.38;9999959;29;20075;-68
2021/07/11 15:52:41;;;;;;;6.85;4.25;;;;;;;23.00;61.30;101525.28;10003651;29;20086;-69
2021/07/11 15:57:39;;;;;;;5.82;4.32;;;;;;;22.93;61.73;101530.75;10007407;29;20047;-64
2021/07/11 16:02:35;;;;;;;6.55;5.05;;;;;;;22.80;62.08;101522.66;9981063;29;20103;-67
2021/07/11 16:07:32;;;;;;;8.43;4.57;;;;;;;22.68;62.76;101531.31;9977045;29;20138;-69
2021/07/11 16:12:29;;;;;;;5.90;4.25;;;;;;;22.52;62.61;101522.38;9990983;29;20135;-70
2021/07/11 16:17:27;;;;;;;6.50;4.47;;;;;;;22.43;63.32;101526.22;9995460;29;20160;-70
2021/07/11 16:22:23;;;;;;;6.43;4.53;;;;;;;22.38;63.46;101529.38;9988310;29;20092;-70
2021/07/11 16:27:20;;;;;;;8.30;4.53;;;;;;;22.34;63.71;101528.50;9996712;29;20049;-68
2021/07/11 16:32:16;;;;;;;9.90;4.80;;;;;;;22.26;64.10;101521.25;9999727;29;20072;-68
2021/07/11 16:37:13;;;;;;;6.93;4.22;;;;;;;22.26;63.36;101526.84;9988447;29;20540;-68
2021/07/11 16:42:09;;;;;;;6.35;3.92;;;;;;;22.24;62.92;101513.28;9988414;29;20071;-70
2021/07/11 16:47:06;;;;;;;6.80;3.90;;;;;;;22.20;64.05;101522.72;10004932;29;20075;-70
2021/07/11 16:52:03;;;;;;;6.40;4.60;;;;;;;22.17;63.69;101527.09;9999715;29;20084;-70
2021/07/11 16:57:00;;;;;;;6.65;4.07;;;;;;;22.14;63.54;101524.22;9988625;29;20076;-69
2021/07/11 17:01:56;;;;;;;7.38;4.43;;;;;;;22.14;64.46;101529.81;9993863;29;20080;-69
2021/07/11 17:06:52;;;;;;;5.28;3.95;;;;;;;22.08;64.56;101531.34;9999870;29;20188;-70
2021/07/11 17:11:49;;;;;;;5.40;3.97;;;;;;;22.03;64.63;101536.03;9988802;29;20130;-67
2021/07/11 17:16:45;;;;;;;10.27;3.67;;;;;;;22.03;64.44;101540.81;10004870;29;20040;-70
2021/07/11 17:21:42;;;;;;;6.72;4.13;;;;;;;22.02;65.35;101542.81;9986457;29;20131;-66
2021/07/11 17:26:39;;;;;;;7.72;4.35;;;;;;;21.95;64.75;101555.81;9976506;29;20047;-70
2021/07/11 17:31:35;;;;;;;6.05;4.43;;;;;;;21.96;67.26;101591.63;9979357;29;20044;-69
2021/07/11 17:36:32;;;;;;;10.55;5.90;;;;;;;21.90;70.84;101590.34;9982579;29;20072;-67
2021/07/11 17:41:29;;;;;;;13.73;7.30;;;;;;;21.57;73.25;101575.13;9980228;29;20099;-68
2021/07/11 17:46:27;;;;;;;11.02;7.07;;;;;;;21.33;75.04;101558.78;9969465;29;20052;-68
2021/07/11 17:51:25;;;;;;;13.52;8.45;;;;;;;21.23;76.28;101555.47;9969590;29;20044;-70
2021/07/11 17:56:21;;;;;;;12.63;7.50;;;;;;;21.11;76.60;101552.84;9973057;29;20056;-69
2021/07/11 18:01:20;;;;;;;11.75;7.43;;;;;;;20.97;76.24;101547.03;9959826;29;20135;-70
2021/07/11 18:06:17;;;;;;;8.95;7.32;;;;;;;20.91;75.29;101534.59;9955358;29;20111;-67
2021/07/11 18:11:14;;;;;;;12.70;7.50;;;;;;;20.85;72.83;101530.53;9963576;29;20068;-69
2021/07/11 18:16:11;;;;;;;9.60;7.82;;;;;;;20.89;74.76;101529.41;9963203;29;20052;-70
2021/07/11 18:21:08;;;;;;;13.68;7.97;;;;;;;20.88;75.11;101515.88;9958756;29;20044;-68
2021/07/11 18:26:04;;;;;;;13.55;8.65;;;;;;;20.87;76.35;101514.28;9974354;29;20052;-69
2021/07/11 18:31:01;;;;;;;9.27;7.55;;;;;;;20.78;77.29;101512.53;9991842;29;20052;-70
2021/07/11 18:35:59;;;;;;;10.80;8.05;;;;;;;20.77;76.58;101512.88;9980296;29;20127;-69
2021/07/11 18:40:55;;;;;;;9.82;7.55;;;;;;;20.78;77.05;101504.19;9976603;29;20127;-69
2021/07/11 18:45:52;;;;;;;10.02;7.30;;;;;;;20.72;74.57;101497.31;9967148;29;20045;-69
2021/07/11 18:50:50;;;;;;;9.70;7.38;;;;;;;20.74;77.00;101497.75;9972199;29;20144;-67
2021/07/11 18:55:48;;;;;;;10.63;7.90;;;;;;;20.67;78.03;101500.41;9964504;29;20048;-69
2021/07/11 19:00:46;;;;;;;10.63;8.23;;;;;;;20.56;74.59;101496.63;9980218;29;20078;-70
2021/07/11 19:05:43;;;;;;;11.23;7.78;;;;;;;20.57;75.29;101496.25;9984530;29;20049;-70
2021/07/11 19:10:40;;;;;;;10.90;9.15;;;;;;;20.52;74.21;101492.97;9992612;29;20108;-69
2021/07/11 19:15:37;;;;;;;12.02;8.18;;;;;;;20.45;72.42;101495.59;9966654;29;20116;-65
2021/07/11 19:20:33;;;;;;;12.55;8.48;;;;;;;20.38;73.92;101493.47;9959907;29;20048;-67
2021/07/11 19:25:30;;;;;;;10.27;9.20;;;;;;;20.33;75.89;101497.34;9963598;29;20528;-66
2021/07/11 19:30:28;;;;;;;10.70;8.45;;;;;;;20.26;74.81;101491.66;9966994;29;20045;-67
2021/07/11 19:35:25;;;;;;;10.80;8.95;;;;;;;20.22;75.76;101490.78;9962673;29;20525;-69
2021/07/11 19:40:24;;;;;;;10.63;8.50;;;;;;;20.14;75.33;101491.78;9964429;29;20076;-66
2021/07/11 19:45:23;;;;;;;10.80;8.48;;;;;;;20.14;78.68;101502.88;9979529;29;20052;-69
2021/07/11 19:50:20;;;;;;;12.57;9.30;;;;;;;20.10;78.28;101494.50;9977321;29;20052;-69
2021/07/11 19:55:18;;;;;;;11.32;9.18;;;;;;;20.04;78.85;101503.47;9982791;29;20666;-69
2021/07/11 20:00:21;;;;;;;12.70;9.68;;;;;;;19.99;78.73;101503.75;9986362;29;20112;-70
2021/07/11 20:05:17;;;;;;;15.68;9.68;;;;;;;19.85;77.73;101510.59;9976929;29;20044;-69
2021/07/11 20:10:17;;;;;;;15.00;10.10;;;;;;;19.87;79.50;101510.25;9969350;29;21275;-67
2021/07/11 20:15:14;;;;;;;12.80;9.77;;;;;;;19.83;80.23;101501.03;9988324;29;20083;-72
2021/07/11 20:20:13;;;;;;;12.52;9.95;;;;;;;19.80;80.49;101497.00;9981551;29;20221;-69
2021/07/11 20:25:11;;;;;;;13.98;9.38;;;;;;;19.78;80.83;101493.78;9972076;29;20389;-68
2021/07/11 20:30:09;;;;;;;14.82;10.20;;;;;;;19.74;80.71;101499.25;9975565;29;20049;-70
2021/07/11 20:35:07;;;;;;;12.77;10.02;;;;;;;19.68;80.21;101506.25;9976341;29;20104;-70
2021/07/11 20:40:06;;;;;;;13.88;9.75;;;;;;;19.64;80.86;101493.44;9978791;29;20079;-69
2021/07/11 20:45:05;;;;;;;12.93;10.77;;;;;;;19.63;81.18;101491.81;9988757;29;20112;-68
2021/07/11 20:50:04;;;;;;;13.25;9.95;;;;;;;19.59;81.66;101485.38;9997122;29;20048;-68
2021/07/11 20:55:01;;;;;;;13.60;10.98;;;;;;;19.57;82.59;101482.97;9983543;29;20072;-68
2021/07/11 21:00:00;;;;;;;15.10;11.43;;;;;;;19.54;82.85;101484.50;9994307;29;20046;-69
2021/07/11 21:04:57;;;;;;;14.52;11.82;;;;;;;19.50;83.32;101483.59;9994148;29;20051;-69
2021/07/11 21:09:57;;;;;;;15.32;11.68;;;;;;;19.46;83.31;101470.81;9989209;29;20567;-71
2021/07/11 21:14:54;;;;;;;14.25;11.18;;;;;;;19.44;83.43;101471.16;9992024;29;20262;-69
2021/07/11 21:19:52;;;;;;;17.42;10.82;;;;;;;19.43;83.81;101471.56;10005089;29;20043;-69
2021/07/11 21:24:49;;;;;;;16.52;11.52;;;;;;;19.41;83.76;101469.13;9996654;29;20040;-72
2021/07/11 21:29:45;;;;;;;17.77;12.43;;;;;;;19.38;84.10;101469.84;10001444;29;20043;-72
2021/07/11 21:34:42;;;;;;;15.75;12.88;;;;;;;19.36;84.26;101474.16;9996204;29;20103;-72
2021/07/11 21:39:38;;;;;;;18.67;13.45;;;;;;;19.29;84.26;101472.00;9976032;29;20040;-74
2021/07/11 21:44:35;;;;;;;16.58;12.63;;;;;;;19.27;84.69;101468.78;9974288;29;20052;-71
2021/07/11 21:49:32;;;;;;;16.25;12.15;;;;;;;19.24;84.57;101464.78;9974684;29;20096;-71
2021/07/11 21:54:28;;;;;;;19.70;13.48;;;;;;;19.23;84.95;101474.25;9976495;29;20072;-71
2021/07/11 21:59:24;;;;;;;19.58;13.00;;;;;;;19.20;84.98;101471.41;9980957;29;20147;-69
2021/07/11 22:04:21;;;;;;;18.13;13.35;;;;;;;19.16;85.19;101473.25;10000353;29;20083;-70
2021/07/11 22:09:17;;;;;;;16.15;13.15;;;;;;;19.17;85.09;101474.88;9994048;29;20123;-70
2021/07/11 22:14:14;;;;;;;21.27;14.88;;;;;;;19.13;84.97;101475.59;10004803;29;20044;-68
2021/07/11 22:19:11;;;;;;;18.48;13.57;;;;;;;19.09;85.29;101483.00;10080627;23;20101;-67
2021/07/11 22:24:07;;;;;;;16.38;13.60;;;;;;;19.06;85.32;101474.63;10104229;28;20466;-71
2021/07/11 22:29:04;;;;;;;17.13;13.27;;;;;;;19.01;85.07;101475.69;10102992;28;20074;-70
2021/07/11 22:34:00;;;;;;;14.88;12.85;;;;;;;18.98;85.11;101473.59;10103229;28;20145;-71
2021/07/11 22:38:57;;;;;;;17.75;12.77;;;;;;;18.95;85.30;101470.75;10108673;28;20042;-70
2021/07/11 22:43:54;;;;;;;17.17;13.52;;;;;;;18.92;85.29;101463.97;10097720;28;20051;-70
2021/07/11 22:48:50;;;;;;;16.17;13.43;;;;;;;18.90;85.64;101455.19;10110741;28;20039;-68
2021/07/11 22:53:46;;;;;;;16.42;13.85;;;;;;;18.87;85.72;101459.50;10114630;28;20084;-68
2021/07/11 22:58:43;;;;;;;14.88;13.30;;;;;;;18.85;86.02;101447.16;10103556;28;20034;-70